sensor_id;sensor_type;location;lat;lon;timestamp;pressure;altitude;pressure_sealevel;temperature;humidity
44103;BME280;29769;42.178;24.742;2023-02-14T00:01:59;101087.44;;;1.42;100.00
44103;BME280;29769;42.178;24.742;2023-02-14T00:04:44;101094.59;;;1.47;100.00
44103;BME280;29769;42.178;24.742;2023-02-14T00:07:31;101088.72;;;1.51;100.00
44103;BME280;29769;42.178;24.742;2023-02-14T00:10:16;101071.84;;;1.61;100.00
44103;BME280;29769;42.178;24.742;2023-02-14T00:13:01;101088.50;;;1.66;100.00
44103;BME280;29769;42.178;24.742;2023-02-14T00:15:46;101084.59;;;1.75;100.00
44103;BME280;29769;42.178;24.742;2023-02-14T00:18:30;101082.94;;;1.77;100.00
44103;BME280;29769;42.178;24.742;2023-02-14T00:21:36;101096.78;;;1.78;100.00
44103;BME280;29769;42.178;24.742;2023-02-14T00:24:23;101107.03;;;1.75;100.00
44103;BME280;29769;42.178;24.742;2023-02-14T00:27:09;101101.66;;;1.91;100.00
44103;BME280;29769;42.178;24.742;2023-02-14T00:29:53;101100.44;;;1.82;100.00
44103;BME280;29769;42.178;24.742;2023-02-14T00:32:40;101093.06;;;1.71;100.00
44103;BME280;29769;42.178;24.742;2023-02-14T00:35:26;101086.41;;;1.57;100.00
44103;BME280;29769;42.178;24.742;2023-02-14T00:38:12;101087.78;;;1.49;100.00
44103;BME280;29769;42.178;24.742;2023-02-14T00:40:57;101081.34;;;1.60;100.00
44103;BME280;29769;42.178;24.742;2023-02-14T00:43:42;101071.94;;;1.62;100.00
44103;BME280;29769;42.178;24.742;2023-02-14T00:46:27;101076.72;;;1.53;100.00
44103;BME280;29769;42.178;24.742;2023-02-14T00:49:13;101072.66;;;1.20;100.00
44103;BME280;29769;42.178;24.742;2023-02-14T00:51:58;101075.13;;;0.98;100.00
44103;BME280;29769;42.178;24.742;2023-02-14T00:54:43;101100.06;;;0.96;100.00
44103;BME280;29769;42.178;24.742;2023-02-14T00:57:28;101095.72;;;0.95;100.00
44103;BME280;29769;42.178;24.742;2023-02-14T01:00:13;101104.63;;;1.01;100.00
44103;BME280;29769;42.178;24.742;2023-02-14T01:02:58;101108.25;;;0.85;100.00
44103;BME280;29769;42.178;24.742;2023-02-14T01:05:43;101101.16;;;0.81;100.00
44103;BME280;29769;42.178;24.742;2023-02-14T01:08:27;101082.53;;;0.71;100.00
44103;BME280;29769;42.178;24.742;2023-02-14T01:11:19;101094.03;;;0.77;100.00
44103;BME280;29769;42.178;24.742;2023-02-14T01:14:04;101055.25;;;0.60;100.00
44103;BME280;29769;42.178;24.742;2023-02-14T01:16:49;101092.88;;;0.71;100.00
44103;BME280;29769;42.178;24.742;2023-02-14T01:19:34;101079.84;;;0.69;100.00
44103;BME280;29769;42.178;24.742;2023-02-14T01:22:20;101074.34;;;0.62;100.00
44103;BME280;29769;42.178;24.742;2023-02-14T01:25:05;101077.06;;;0.65;100.00
44103;BME280;29769;42.178;24.742;2023-02-14T01:27:50;101070.47;;;0.71;100.00
44103;BME280;29769;42.178;24.742;2023-02-14T01:30:35;101066.88;;;0.50;100.00
44103;BME280;29769;42.178;24.742;2023-02-14T01:33:20;101061.31;;;0.60;100.00
44103;BME280;29769;42.178;24.742;2023-02-14T01:36:05;101058.47;;;0.54;100.00
44103;BME280;29769;42.178;24.742;2023-02-14T01:38:55;101079.44;;;0.60;100.00
44103;BME280;29769;42.178;24.742;2023-02-14T01:41:43;101074.16;;;0.76;100.00
44103;BME280;29769;42.178;24.742;2023-02-14T01:47:13;101065.31;;;0.91;100.00
44103;BME280;29769;42.178;24.742;2023-02-14T01:49:59;101070.28;;;0.86;100.00
44103;BME280;29769;42.178;24.742;2023-02-14T01:52:49;101069.94;;;0.98;100.00
44103;BME280;29769;42.178;24.742;2023-02-14T01:55:43;101050.44;;;0.86;100.00
44103;BME280;29769;42.178;24.742;2023-02-14T01:58:30;101057.78;;;0.97;100.00
44103;BME280;29769;42.178;24.742;2023-02-14T02:01:18;101051.19;;;1.03;100.00
44103;BME280;29769;42.178;24.742;2023-02-14T02:04:16;101040.66;;;1.39;98.86
44103;BME280;29769;42.178;24.742;2023-02-14T02:07:06;101032.56;;;1.52;97.73
44103;BME280;29769;42.178;24.742;2023-02-14T02:09:55;101030.66;;;1.68;95.69
44103;BME280;29769;42.178;24.742;2023-02-14T02:12:41;101035.84;;;1.68;94.71
44103;BME280;29769;42.178;24.742;2023-02-14T02:15:28;101032.81;;;1.78;94.69
44103;BME280;29769;42.178;24.742;2023-02-14T02:18:42;101032.25;;;1.65;95.49
44103;BME280;29769;42.178;24.742;2023-02-14T02:30:31;101016.63;;;1.84;93.08
44103;BME280;29769;42.178;24.742;2023-02-14T02:36:35;101002.69;;;2.47;85.36
44103;BME280;29769;42.178;24.742;2023-02-14T02:39:56;101005.63;;;2.56;83.57
44103;BME280;29769;42.178;24.742;2023-02-14T02:42:51;101010.13;;;2.38;84.50
44103;BME280;29769;42.178;24.742;2023-02-14T02:45:47;101013.88;;;2.22;86.18
44103;BME280;29769;42.178;24.742;2023-02-14T02:49:03;101014.75;;;1.80;90.65
44103;BME280;29769;42.178;24.742;2023-02-14T02:51:52;100995.75;;;1.81;90.13
44103;BME280;29769;42.178;24.742;2023-02-14T02:55:03;101000.63;;;1.94;89.68
44103;BME280;29769;42.178;24.742;2023-02-14T02:57:52;100981.44;;;1.91;87.98
44103;BME280;29769;42.178;24.742;2023-02-14T03:00:37;101004.22;;;1.98;88.30
44103;BME280;29769;42.178;24.742;2023-02-14T03:03:23;100993.00;;;1.99;87.63
44103;BME280;29769;42.178;24.742;2023-02-14T03:06:46;100997.59;;;2.06;87.11
44103;BME280;29769;42.178;24.742;2023-02-14T03:21:27;100977.19;;;2.15;87.38
44103;BME280;29769;42.178;24.742;2023-02-14T03:27:31;100966.88;;;1.94;89.59
44103;BME280;29769;42.178;24.742;2023-02-14T03:30:41;100970.75;;;1.83;90.55
44103;BME280;29769;42.178;24.742;2023-02-14T03:33:56;100960.25;;;1.80;90.72
44103;BME280;29769;42.178;24.742;2023-02-14T03:36:49;100962.75;;;1.77;90.67
44103;BME280;29769;42.178;24.742;2023-02-14T03:39:44;100968.56;;;1.71;90.93
44103;BME280;29769;42.178;24.742;2023-02-14T03:42:39;100979.56;;;1.66;91.77
44103;BME280;29769;42.178;24.742;2023-02-14T03:45:31;100965.91;;;1.49;92.79
44103;BME280;29769;42.178;24.742;2023-02-14T03:48:19;100967.47;;;1.25;95.18
44103;BME280;29769;42.178;24.742;2023-02-14T03:51:09;100970.78;;;1.21;96.15
44103;BME280;29769;42.178;24.742;2023-02-14T03:53:56;100971.59;;;1.20;96.49
44103;BME280;29769;42.178;24.742;2023-02-14T03:57:04;100994.13;;;0.82;100.00
44103;BME280;29769;42.178;24.742;2023-02-14T03:59:52;100986.38;;;0.63;100.00
44103;BME280;29769;42.178;24.742;2023-02-14T04:02:42;100995.09;;;0.65;100.00
44103;BME280;29769;42.178;24.742;2023-02-14T04:05:28;100998.44;;;0.63;100.00
44103;BME280;29769;42.178;24.742;2023-02-14T04:08:20;100982.53;;;0.55;100.00
44103;BME280;29769;42.178;24.742;2023-02-14T04:11:05;100972.88;;;0.70;100.00
44103;BME280;29769;42.178;24.742;2023-02-14T04:13:50;100965.91;;;0.69;100.00
44103;BME280;29769;42.178;24.742;2023-02-14T04:16:34;100963.41;;;0.71;100.00
44103;BME280;29769;42.178;24.742;2023-02-14T04:19:39;100956.25;;;0.84;99.11
44103;BME280;29769;42.178;24.742;2023-02-14T04:22:24;100952.84;;;1.06;96.43
44103;BME280;29769;42.178;24.742;2023-02-14T04:25:09;100957.03;;;1.23;94.38
44103;BME280;29769;42.178;24.742;2023-02-14T04:27:54;100952.25;;;1.32;93.42
44103;BME280;29769;42.178;24.742;2023-02-14T04:30:39;100943.88;;;0.98;96.22
44103;BME280;29769;42.178;24.742;2023-02-14T04:33:23;100942.97;;;1.17;95.77
44103;BME280;29769;42.178;24.742;2023-02-14T04:36:08;100933.47;;;1.59;91.96
44103;BME280;29769;42.178;24.742;2023-02-14T04:38:53;100916.44;;;1.88;87.92
44103;BME280;29769;42.178;24.742;2023-02-14T04:41:38;100925.72;;;2.03;86.29
44103;BME280;29769;42.178;24.742;2023-02-14T04:44:23;100925.25;;;2.13;85.21
44103;BME280;29769;42.178;24.742;2023-02-14T04:47:08;100904.66;;;2.18;85.63
44103;BME280;29769;42.178;24.742;2023-02-14T04:49:53;100918.81;;;2.26;84.52
44103;BME280;29769;42.178;24.742;2023-02-14T04:52:38;100915.44;;;2.06;86.79
44103;BME280;29769;42.178;24.742;2023-02-14T04:55:23;100914.53;;;2.04;87.77
44103;BME280;29769;42.178;24.742;2023-02-14T04:58:08;100906.06;;;1.88;88.74
44103;BME280;29769;42.178;24.742;2023-02-14T05:00:53;100917.25;;;2.31;84.61
44103;BME280;29769;42.178;24.742;2023-02-14T05:03:38;100907.75;;;2.55;81.54
44103;BME280;29769;42.178;24.742;2023-02-14T05:06:23;100894.38;;;2.68;79.78
44103;BME280;29769;42.178;24.742;2023-02-14T05:09:08;100881.28;;;2.65;79.59
44103;BME280;29769;42.178;24.742;2023-02-14T05:11:52;100872.50;;;2.62;78.98
44103;BME280;29769;42.178;24.742;2023-02-14T05:14:37;100874.28;;;2.63;78.64
44103;BME280;29769;42.178;24.742;2023-02-14T05:17:23;100890.59;;;2.59;78.97
44103;BME280;29769;42.178;24.742;2023-02-14T05:20:07;100884.59;;;2.61;78.81
44103;BME280;29769;42.178;24.742;2023-02-14T05:22:53;100874.13;;;2.58;78.57
44103;BME280;29769;42.178;24.742;2023-02-14T05:25:39;100901.97;;;2.62;79.35
44103;BME280;29769;42.178;24.742;2023-02-14T05:28:24;100894.50;;;2.72;78.52
44103;BME280;29769;42.178;24.742;2023-02-14T05:31:09;100901.88;;;2.85;78.06
44103;BME280;29769;42.178;24.742;2023-02-14T05:33:53;100902.81;;;2.87;78.58
44103;BME280;29769;42.178;24.742;2023-02-14T05:36:38;100889.81;;;2.87;78.23
44103;BME280;29769;42.178;24.742;2023-02-14T05:39:23;100901.53;;;2.99;77.55
44103;BME280;29769;42.178;24.742;2023-02-14T05:42:08;100897.63;;;3.12;76.33
44103;BME280;29769;42.178;24.742;2023-02-14T05:44:53;100893.41;;;3.16;75.46
44103;BME280;29769;42.178;24.742;2023-02-14T05:47:38;100884.13;;;3.22;75.20
44103;BME280;29769;42.178;24.742;2023-02-14T05:50:22;100873.94;;;3.30;73.97
44103;BME280;29769;42.178;24.742;2023-02-14T05:53:12;100882.13;;;3.42;73.23
44103;BME280;29769;42.178;24.742;2023-02-14T05:55:57;100859.09;;;3.52;72.04
44103;BME280;29769;42.178;24.742;2023-02-14T05:58:42;100860.63;;;3.74;71.13
44103;BME280;29769;42.178;24.742;2023-02-14T06:01:27;100855.22;;;3.96;69.46
44103;BME280;29769;42.178;24.742;2023-02-14T06:04:12;100873.22;;;4.17;67.43
44103;BME280;29769;42.178;24.742;2023-02-14T06:06:57;100883.97;;;4.29;66.92
44103;BME280;29769;42.178;24.742;2023-02-14T06:09:41;100874.13;;;4.49;65.64
44103;BME280;29769;42.178;24.742;2023-02-14T06:12:26;100879.34;;;4.51;64.81
44103;BME280;29769;42.178;24.742;2023-02-14T06:15:11;100884.06;;;4.64;63.71
44103;BME280;29769;42.178;24.742;2023-02-14T06:17:56;100872.16;;;4.72;63.24
44103;BME280;29769;42.178;24.742;2023-02-14T06:20:41;100878.97;;;4.68;63.38
44103;BME280;29769;42.178;24.742;2023-02-14T06:23:26;100876.59;;;4.76;63.71
44103;BME280;29769;42.178;24.742;2023-02-14T06:26:11;100865.56;;;4.86;63.38
44103;BME280;29769;42.178;24.742;2023-02-14T06:28:57;100864.16;;;4.99;62.08
44103;BME280;29769;42.178;24.742;2023-02-14T06:31:42;100871.09;;;5.32;61.33
44103;BME280;29769;42.178;24.742;2023-02-14T06:34:27;100869.19;;;5.27;61.33
44103;BME280;29769;42.178;24.742;2023-02-14T06:37:11;100882.97;;;5.56;60.07
44103;BME280;29769;42.178;24.742;2023-02-14T06:39:56;100869.06;;;5.57;61.67
44103;BME280;29769;42.178;24.742;2023-02-14T06:42:41;100881.28;;;5.95;60.39
44103;BME280;29769;42.178;24.742;2023-02-14T06:45:26;100875.91;;;6.28;59.68
44103;BME280;29769;42.178;24.742;2023-02-14T06:48:11;100888.97;;;6.27;58.52
44103;BME280;29769;42.178;24.742;2023-02-14T06:50:56;100869.88;;;6.31;57.35
44103;BME280;29769;42.178;24.742;2023-02-14T06:53:41;100886.50;;;6.34;57.58
44103;BME280;29769;42.178;24.742;2023-02-14T06:56:27;100888.28;;;6.80;56.76
44103;BME280;29769;42.178;24.742;2023-02-14T06:59:12;100886.88;;;6.97;55.58
44103;BME280;29769;42.178;24.742;2023-02-14T07:01:57;100876.28;;;6.90;54.48
44103;BME280;29769;42.178;24.742;2023-02-14T07:04:42;100868.97;;;7.20;53.63
44103;BME280;29769;42.178;24.742;2023-02-14T07:07:26;100858.97;;;6.98;53.63
44103;BME280;29769;42.178;24.742;2023-02-14T07:10:11;100859.06;;;7.02;53.49
44103;BME280;29769;42.178;24.742;2023-02-14T07:12:56;100850.81;;;7.31;52.72
44103;BME280;29769;42.178;24.742;2023-02-14T07:15:41;100857.38;;;7.58;52.69
44103;BME280;29769;42.178;24.742;2023-02-14T07:18:25;100856.38;;;7.52;52.61
44103;BME280;29769;42.178;24.742;2023-02-14T07:21:12;100859.94;;;7.54;52.96
44103;BME280;29769;42.178;24.742;2023-02-14T07:23:57;100853.59;;;8.00;51.68
44103;BME280;29769;42.178;24.742;2023-02-14T07:26:42;100833.38;;;7.90;52.18
44103;BME280;29769;42.178;24.742;2023-02-14T07:29:26;100862.06;;;7.82;52.94
44103;BME280;29769;42.178;24.742;2023-02-14T07:32:11;100812.56;;;8.02;52.45
44103;BME280;29769;42.178;24.742;2023-02-14T07:34:56;100832.84;;;8.15;52.38
44103;BME280;29769;42.178;24.742;2023-02-14T07:37:41;100833.75;;;8.17;52.56
44103;BME280;29769;42.178;24.742;2023-02-14T07:40:26;100827.94;;;8.39;51.65
44103;BME280;29769;42.178;24.742;2023-02-14T07:43:13;100820.88;;;8.34;52.52
44103;BME280;29769;42.178;24.742;2023-02-14T07:45:59;100836.78;;;8.51;53.44
44103;BME280;29769;42.178;24.742;2023-02-14T07:48:44;100827.13;;;8.46;52.27
44103;BME280;29769;42.178;24.742;2023-02-14T07:51:29;100836.19;;;8.77;52.73
44103;BME280;29769;42.178;24.742;2023-02-14T07:54:14;100820.38;;;8.67;52.20
44103;BME280;29769;42.178;24.742;2023-02-14T07:56:59;100804.81;;;8.88;52.46
44103;BME280;29769;42.178;24.742;2023-02-14T07:59:44;100810.75;;;8.67;51.92
44103;BME280;29769;42.178;24.742;2023-02-14T08:02:28;100805.84;;;9.05;51.20
44103;BME280;29769;42.178;24.742;2023-02-14T08:05:13;100770.81;;;9.02;50.62
44103;BME280;29769;42.178;24.742;2023-02-14T08:07:58;100832.31;;;9.32;50.67
44103;BME280;29769;42.178;24.742;2023-02-14T08:10:43;100822.66;;;9.28;50.06
44103;BME280;29769;42.178;24.742;2023-02-14T08:13:28;100823.59;;;9.35;49.17
44103;BME280;29769;42.178;24.742;2023-02-14T08:16:13;100820.06;;;9.31;49.09
44103;BME280;29769;42.178;24.742;2023-02-14T08:18:58;100832.56;;;9.64;50.05
44103;BME280;29769;42.178;24.742;2023-02-14T08:21:43;100840.78;;;10.19;47.37
44103;BME280;29769;42.178;24.742;2023-02-14T08:24:27;100855.75;;;10.31;47.48
44103;BME280;29769;42.178;24.742;2023-02-14T08:27:13;100845.97;;;10.11;46.92
44103;BME280;29769;42.178;24.742;2023-02-14T08:29:57;100850.56;;;10.53;46.71
44103;BME280;29769;42.178;24.742;2023-02-14T08:32:42;100836.56;;;10.69;45.10
44103;BME280;29769;42.178;24.742;2023-02-14T08:35:27;100823.38;;;10.59;45.10
44103;BME280;29769;42.178;24.742;2023-02-14T08:38:12;100853.31;;;11.23;43.92
44103;BME280;29769;42.178;24.742;2023-02-14T08:41:00;100821.72;;;11.14;43.36
44103;BME280;29769;42.178;24.742;2023-02-14T08:43:45;100836.63;;;10.94;44.01
44103;BME280;29769;42.178;24.742;2023-02-14T08:46:30;100829.56;;;10.72;44.58
44103;BME280;29769;42.178;24.742;2023-02-14T08:49:15;100820.81;;;10.97;43.31
44103;BME280;29769;42.178;24.742;2023-02-14T08:52:00;100835.75;;;11.48;42.25
44103;BME280;29769;42.178;24.742;2023-02-14T08:54:44;100834.00;;;11.04;42.86
44103;BME280;29769;42.178;24.742;2023-02-14T08:57:29;100820.84;;;11.29;43.07
44103;BME280;29769;42.178;24.742;2023-02-14T09:00:15;100828.63;;;12.12;41.95
44103;BME280;29769;42.178;24.742;2023-02-14T09:03:00;100804.94;;;12.03;40.78
44103;BME280;29769;42.178;24.742;2023-02-14T09:05:44;100806.75;;;11.84;40.77
44103;BME280;29769;42.178;24.742;2023-02-14T09:08:29;100799.72;;;11.67;40.88
44103;BME280;29769;42.178;24.742;2023-02-14T09:11:17;100776.69;;;12.29;40.19
44103;BME280;29769;42.178;24.742;2023-02-14T09:14:05;100793.44;;;12.21;40.27
44103;BME280;29769;42.178;24.742;2023-02-14T09:16:50;100794.31;;;12.14;40.63
44103;BME280;29769;42.178;24.742;2023-02-14T09:19:36;100771.41;;;12.29;39.59
44103;BME280;29769;42.178;24.742;2023-02-14T09:22:21;100771.19;;;12.66;39.17
44103;BME280;29769;42.178;24.742;2023-02-14T09:25:06;100769.38;;;12.74;38.97
44103;BME280;29769;42.178;24.742;2023-02-14T09:27:51;100722.66;;;12.83;38.74
44103;BME280;29769;42.178;24.742;2023-02-14T09:30:36;100779.38;;;13.42;38.41
44103;BME280;29769;42.178;24.742;2023-02-14T09:33:20;100795.91;;;13.64;38.05
44103;BME280;29769;42.178;24.742;2023-02-14T09:36:06;100780.84;;;12.71;38.64
44103;BME280;29769;42.178;24.742;2023-02-14T09:39:09;100753.59;;;12.65;39.28
44103;BME280;29769;42.178;24.742;2023-02-14T09:42:09;100770.53;;;13.46;36.79
44103;BME280;29769;42.178;24.742;2023-02-14T09:45:23;100759.63;;;13.78;35.05
44103;BME280;29769;42.178;24.742;2023-02-14T09:48:34;100751.66;;;14.51;34.55
44103;BME280;29769;42.178;24.742;2023-02-14T09:51:23;100778.91;;;15.13;33.24
44103;BME280;29769;42.178;24.742;2023-02-14T09:54:18;100740.94;;;15.63;32.31
44103;BME280;29769;42.178;24.742;2023-02-14T10:00:19;100762.41;;;14.39;34.56
44103;BME280;29769;42.178;24.742;2023-02-14T10:09:52;100748.47;;;14.23;34.50
44103;BME280;29769;42.178;24.742;2023-02-14T10:13:02;100729.38;;;14.00;34.93
44103;BME280;29769;42.178;24.742;2023-02-14T10:15:57;100734.00;;;13.83;35.13
44103;BME280;29769;42.178;24.742;2023-02-14T10:18:53;100746.22;;;14.59;34.68
44103;BME280;29769;42.178;24.742;2023-02-14T10:24:44;100713.06;;;13.66;35.68
44103;BME280;29769;42.178;24.742;2023-02-14T10:30:20;100713.59;;;13.13;37.33
44103;BME280;29769;42.178;24.742;2023-02-14T10:33:15;100713.13;;;13.59;36.33
44103;BME280;29769;42.178;24.742;2023-02-14T10:36:12;100689.06;;;13.81;35.73
44103;BME280;29769;42.178;24.742;2023-02-14T10:51:43;100696.00;;;13.90;36.13
44103;BME280;29769;42.178;24.742;2023-02-14T10:54:42;100664.44;;;13.76;37.13
44103;BME280;29769;42.178;24.742;2023-02-14T11:00:22;100653.03;;;14.37;35.75
44103;BME280;29769;42.178;24.742;2023-02-14T11:03:11;100678.91;;;14.15;35.62
44103;BME280;29769;42.178;24.742;2023-02-14T11:05:57;100673.31;;;14.40;35.73
44103;BME280;29769;42.178;24.742;2023-02-14T11:08:42;100656.66;;;14.29;35.81
44103;BME280;29769;42.178;24.742;2023-02-14T11:11:31;100659.97;;;14.96;35.34
44103;BME280;29769;42.178;24.742;2023-02-14T11:17:30;100660.31;;;14.77;34.59
44103;BME280;29769;42.178;24.742;2023-02-14T11:23:31;100656.66;;;14.27;35.36
44103;BME280;29769;42.178;24.742;2023-02-14T11:26:25;100630.81;;;13.86;36.79
44103;BME280;29769;42.178;24.742;2023-02-14T11:29:17;100656.03;;;14.68;35.87
44103;BME280;29769;42.178;24.742;2023-02-14T11:35:07;100645.47;;;14.68;36.58
44103;BME280;29769;42.178;24.742;2023-02-14T11:38:03;100645.81;;;14.48;36.43
44103;BME280;29769;42.178;24.742;2023-02-14T11:40:53;100648.19;;;14.63;36.11
44103;BME280;29769;42.178;24.742;2023-02-14T11:43:43;100633.06;;;15.18;35.08
44103;BME280;29769;42.178;24.742;2023-02-14T11:46:29;100634.44;;;14.40;36.38
44103;BME280;29769;42.178;24.742;2023-02-14T11:49:32;100630.31;;;14.21;36.93
44103;BME280;29769;42.178;24.742;2023-02-14T11:52:17;100606.94;;;14.50;36.87
44103;BME280;29769;42.178;24.742;2023-02-14T11:55:03;100622.97;;;14.41;37.08
44103;BME280;29769;42.178;24.742;2023-02-14T11:57:48;100607.81;;;13.91;36.87
44103;BME280;29769;42.178;24.742;2023-02-14T12:00:33;100594.97;;;13.65;37.40
44103;BME280;29769;42.178;24.742;2023-02-14T12:03:19;100626.19;;;14.02;36.95
44103;BME280;29769;42.178;24.742;2023-02-14T12:06:03;100619.09;;;14.62;36.34
44103;BME280;29769;42.178;24.742;2023-02-14T12:08:49;100626.97;;;15.14;35.06
44103;BME280;29769;42.178;24.742;2023-02-14T12:11:33;100620.69;;;14.15;36.78
44103;BME280;29769;42.178;24.742;2023-02-14T12:14:19;100611.53;;;13.79;37.57
44103;BME280;29769;42.178;24.742;2023-02-14T12:17:31;100587.16;;;13.55;37.55
44103;BME280;29769;42.178;24.742;2023-02-14T12:21:20;100603.53;;;14.42;36.39
44103;BME280;29769;42.178;24.742;2023-02-14T12:26:35;100597.16;;;13.96;36.15
44103;BME280;29769;42.178;24.742;2023-02-14T12:29:46;100591.69;;;14.63;35.37
44103;BME280;29769;42.178;24.742;2023-02-14T12:32:33;100612.03;;;14.06;35.90
44103;BME280;29769;42.178;24.742;2023-02-14T12:41:52;100609.84;;;14.32;36.13
44103;BME280;29769;42.178;24.742;2023-02-14T12:51:29;100567.34;;;13.86;37.01
44103;BME280;29769;42.178;24.742;2023-02-14T13:07:35;100564.19;;;13.60;37.87
44103;BME280;29769;42.178;24.742;2023-02-14T13:19:40;100586.50;;;12.55;40.37
44103;BME280;29769;42.178;24.742;2023-02-14T13:22:29;100570.81;;;12.40;40.64
44103;BME280;29769;42.178;24.742;2023-02-14T13:25:27;100594.41;;;12.58;40.30
44103;BME280;29769;42.178;24.742;2023-02-14T13:28:17;100590.75;;;12.71;39.89
44103;BME280;29769;42.178;24.742;2023-02-14T13:31:04;100593.75;;;12.27;40.97
44103;BME280;29769;42.178;24.742;2023-02-14T13:33:51;100598.78;;;12.59;41.27
44103;BME280;29769;42.178;24.742;2023-02-14T13:36:39;100558.63;;;12.22;41.11
44103;BME280;29769;42.178;24.742;2023-02-14T13:39:30;100625.28;;;12.45;40.63
44103;BME280;29769;42.178;24.742;2023-02-14T13:48:27;100594.75;;;12.16;42.15
44103;BME280;29769;42.178;24.742;2023-02-14T13:51:12;100632.84;;;11.62;43.89
44103;BME280;29769;42.178;24.742;2023-02-14T13:53:57;100616.97;;;11.72;44.11
44103;BME280;29769;42.178;24.742;2023-02-14T13:56:42;100643.22;;;11.95;43.72
44103;BME280;29769;42.178;24.742;2023-02-14T13:59:32;100645.25;;;11.35;44.89
44103;BME280;29769;42.178;24.742;2023-02-14T14:17:17;100597.94;;;10.93;45.97
44103;BME280;29769;42.178;24.742;2023-02-14T14:23:32;100615.50;;;10.15;47.76
44103;BME280;29769;42.178;24.742;2023-02-14T14:26:32;100613.75;;;10.14;48.12
44103;BME280;29769;42.178;24.742;2023-02-14T14:32:11;100633.78;;;9.72;49.39
44103;BME280;29769;42.178;24.742;2023-02-14T14:35:19;100629.41;;;9.65;49.67
44103;BME280;29769;42.178;24.742;2023-02-14T14:38:05;100642.47;;;9.47;50.62
44103;BME280;29769;42.178;24.742;2023-02-14T14:40:50;100650.25;;;9.32;51.17
44103;BME280;29769;42.178;24.742;2023-02-14T14:43:38;100647.69;;;9.35;51.36
44103;BME280;29769;42.178;24.742;2023-02-14T14:46:23;100642.41;;;9.36;51.82
44103;BME280;29769;42.178;24.742;2023-02-14T14:49:10;100651.94;;;9.15;52.12
44103;BME280;29769;42.178;24.742;2023-02-14T14:51:56;100657.13;;;9.06;52.33
44103;BME280;29769;42.178;24.742;2023-02-14T14:54:42;100657.97;;;8.99;52.94
44103;BME280;29769;42.178;24.742;2023-02-14T14:57:27;100647.34;;;8.80;53.52
44103;BME280;29769;42.178;24.742;2023-02-14T15:00:18;100657.81;;;8.76;54.24
44103;BME280;29769;42.178;24.742;2023-02-14T15:06:16;100666.19;;;8.34;56.82
44103;BME280;29769;42.178;24.742;2023-02-14T15:09:19;100659.16;;;8.30;57.29
44103;BME280;29769;42.178;24.742;2023-02-14T15:12:05;100633.63;;;8.12;57.98
44103;BME280;29769;42.178;24.742;2023-02-14T15:15:11;100660.50;;;7.93;59.45
44103;BME280;29769;42.178;24.742;2023-02-14T15:17:56;100663.75;;;7.71;60.54
44103;BME280;29769;42.178;24.742;2023-02-14T15:20:41;100667.19;;;7.68;61.49
44103;BME280;29769;42.178;24.742;2023-02-14T15:23:26;100693.13;;;7.47;62.87
44103;BME280;29769;42.178;24.742;2023-02-14T15:26:27;100689.38;;;7.27;64.88
44103;BME280;29769;42.178;24.742;2023-02-14T15:29:29;100684.00;;;7.19;65.71
44103;BME280;29769;42.178;24.742;2023-02-14T15:32:14;100701.25;;;7.03;67.22
44103;BME280;29769;42.178;24.742;2023-02-14T15:35:00;100693.19;;;6.91;68.62
44103;BME280;29769;42.178;24.742;2023-02-14T15:37:47;100681.72;;;6.82;69.16
44103;BME280;29769;42.178;24.742;2023-02-14T15:40:34;100674.53;;;6.68;69.78
44103;BME280;29769;42.178;24.742;2023-02-14T15:46:18;100700.22;;;6.41;72.75
44103;BME280;29769;42.178;24.742;2023-02-14T15:49:15;100687.13;;;6.40;72.47
44103;BME280;29769;42.178;24.742;2023-02-14T15:52:04;100662.53;;;6.29;73.59
44103;BME280;29769;42.178;24.742;2023-02-14T15:54:50;100685.97;;;6.24;74.00
44103;BME280;29769;42.178;24.742;2023-02-14T15:57:35;100691.16;;;6.21;74.41
44103;BME280;29769;42.178;24.742;2023-02-14T16:00:21;100680.53;;;6.12;75.31
44103;BME280;29769;42.178;24.742;2023-02-14T16:03:10;100676.19;;;6.12;75.46
44103;BME280;29769;42.178;24.742;2023-02-14T16:05:56;100672.56;;;6.06;75.54
44103;BME280;29769;42.178;24.742;2023-02-14T16:08:42;100695.94;;;5.98;76.02
44103;BME280;29769;42.178;24.742;2023-02-14T16:11:32;100696.84;;;6.00;76.01
44103;BME280;29769;42.178;24.742;2023-02-14T16:14:37;100688.88;;;5.93;77.12
44103;BME280;29769;42.178;24.742;2023-02-14T16:17:32;100682.72;;;5.91;77.21
44103;BME280;29769;42.178;24.742;2023-02-14T16:25:59;100674.78;;;5.86;77.64
44103;BME280;29769;42.178;24.742;2023-02-14T16:28:44;100688.69;;;5.85;78.30
44103;BME280;29769;42.178;24.742;2023-02-14T16:31:29;100686.88;;;5.81;78.31
44103;BME280;29769;42.178;24.742;2023-02-14T16:34:15;100696.28;;;5.73;79.32
44103;BME280;29769;42.178;24.742;2023-02-14T16:37:08;100685.69;;;5.65;79.21
44103;BME280;29769;42.178;24.742;2023-02-14T16:40:00;100715.88;;;5.54;80.49
44103;BME280;29769;42.178;24.742;2023-02-14T16:42:45;100715.94;;;5.56;80.81
44103;BME280;29769;42.178;24.742;2023-02-14T16:45:30;100674.22;;;5.57;80.95
44103;BME280;29769;42.178;24.742;2023-02-14T16:48:15;100700.91;;;5.46;81.74
44103;BME280;29769;42.178;24.742;2023-02-14T16:51:00;100694.06;;;5.49;81.59
44103;BME280;29769;42.178;24.742;2023-02-14T16:53:45;100696.25;;;5.29;81.84
44103;BME280;29769;42.178;24.742;2023-02-14T16:59:33;100716.31;;;5.33;83.31
44103;BME280;29769;42.178;24.742;2023-02-14T17:02:18;100717.06;;;5.26;83.39
44103;BME280;29769;42.178;24.742;2023-02-14T17:05:03;100714.34;;;5.23;83.41
44103;BME280;29769;42.178;24.742;2023-02-14T17:07:48;100694.31;;;5.22;83.17